createdAt,value
2023-05-21T00:01:42.585Z,99.90
2023-05-21T00:04:47.542Z,99.90
2023-05-21T00:07:53.363Z,99.90
2023-05-21T00:10:57.488Z,1.00
2023-05-21T00:14:01.785Z,1.00
2023-05-21T00:17:06.450Z,42.60
2023-05-21T00:20:11.181Z,99.90
2023-05-21T00:23:18.561Z,99.90
2023-05-21T00:26:26.375Z,99.90
2023-05-21T00:29:34.702Z,99.90
2023-05-21T00:32:39.576Z,1.00
2023-05-21T00:35:44.087Z,50.40
2023-05-21T00:38:48.396Z,99.90
2023-05-21T00:41:52.835Z,99.90
2023-05-21T00:44:57.726Z,99.90
2023-05-21T00:48:04.197Z,1.00
2023-05-21T00:51:08.945Z,32.40
2023-05-21T00:54:13.519Z,90.20
2023-05-21T00:57:20.728Z,99.90
2023-05-21T01:00:26.546Z,99.90
2023-05-21T01:03:30.993Z,99.90
2023-05-21T01:06:35.191Z,99.90
2023-05-21T01:09:40.875Z,99.90
2023-05-21T01:12:47.847Z,1.00
2023-05-21T01:15:53.774Z,1.00
2023-05-21T01:18:59.577Z,7.80
2023-05-21T01:22:07.147Z,3.10
2023-05-21T01:25:12.270Z,63.00
2023-05-21T01:28:16.785Z,83.70
2023-05-21T01:31:28.692Z,93.80
2023-05-21T01:34:47.981Z,86.60
2023-05-21T01:38:04.596Z,96.50
2023-05-21T01:41:17.236Z,99.90
2023-05-21T01:44:23.246Z,99.90
2023-05-21T01:47:31.309Z,99.90
2023-05-21T01:50:37.682Z,99.90
2023-05-21T01:53:42.640Z,99.90
2023-05-21T01:56:48.039Z,99.90
2023-05-21T01:59:54.152Z,99.90
2023-05-21T02:02:59.814Z,99.90
2023-05-21T02:06:04.700Z,99.90
2023-05-21T02:09:09.486Z,99.90
2023-05-21T02:12:13.837Z,99.90
2023-05-21T02:15:19.342Z,99.90
2023-05-21T02:18:23.967Z,93.80
2023-05-21T02:21:28.553Z,80.90
2023-05-21T02:24:33.148Z,49.60
2023-05-21T02:27:39.269Z,23.00
2023-05-21T02:30:44.015Z,13.20
2023-05-21T02:33:49.151Z,7.80
2023-05-21T02:36:53.724Z,1.00
2023-05-21T02:39:58.658Z,1.00
2023-05-21T02:43:02.995Z,1.00
2023-05-21T02:46:08.911Z,1.00
2023-05-21T02:49:13.562Z,1.00
2023-05-21T02:52:22.620Z,1.00
2023-05-21T02:55:27.037Z,1.00
2023-05-21T02:58:32.011Z,1.00
2023-05-21T03:01:36.413Z,1.00
2023-05-21T03:04:46.479Z,1.00
2023-05-21T03:07:51.454Z,1.00
2023-05-21T03:10:56.124Z,1.00
2023-05-21T03:14:01.063Z,1.00
2023-05-21T03:17:06.358Z,1.00
2023-05-21T03:20:17.122Z,1.00
2023-05-21T03:23:22.060Z,1.00
2023-05-21T03:26:29.930Z,1.00
2023-05-21T03:29:36.249Z,1.00
2023-05-21T03:32:41.402Z,99.90
2023-05-21T03:35:46.387Z,99.90
2023-05-21T03:38:50.863Z,99.90
2023-05-21T03:41:56.132Z,99.90
2023-05-21T03:45:10.181Z,99.90
2023-05-21T03:48:18.179Z,99.90
2023-05-21T03:51:23.309Z,99.90
2023-05-21T03:54:27.618Z,53.10
2023-05-21T03:57:36.038Z,1.00
2023-05-21T04:00:40.735Z,99.90
2023-05-21T04:03:45.271Z,99.90
2023-05-21T04:06:51.676Z,73.40
2023-05-21T04:09:56.353Z,99.90
2023-05-21T04:13:01.181Z,99.90
2023-05-21T04:16:09.013Z,99.90
2023-05-21T04:19:13.917Z,99.90
2023-05-21T04:22:18.396Z,99.90
2023-05-21T04:25:23.307Z,99.90
2023-05-21T04:28:28.745Z,99.90
2023-05-21T04:31:34.387Z,73.00
2023-05-21T04:34:40.426Z,7.50
2023-05-21T04:37:46.104Z,1.00
2023-05-21T04:40:52.165Z,99.90
2023-05-21T04:43:56.591Z,99.90
2023-05-21T04:47:04.758Z,99.90
2023-05-21T04:50:10.623Z,99.90
2023-05-21T04:53:15.335Z,58.80
2023-05-21T04:56:19.791Z,1.00
2023-05-21T04:59:24.930Z,99.90
2023-05-21T05:02:30.644Z,99.90
2023-05-21T05:05:35.363Z,99.90
2023-05-21T05:08:40.034Z,99.90
2023-05-21T05:11:44.675Z,99.90
2023-05-21T05:14:49.288Z,60.00
2023-05-21T05:17:54.692Z,1.00
2023-05-21T05:20:59.741Z,99.90
2023-05-21T05:24:04.923Z,99.90
2023-05-21T05:27:10.153Z,99.90
2023-05-21T05:30:14.478Z,99.90
2023-05-21T05:33:18.669Z,70.60
2023-05-21T05:36:23.029Z,32.00
2023-05-21T05:39:27.377Z,1.00
2023-05-21T05:42:31.888Z,28.30
2023-05-21T05:45:39.854Z,1.00
2023-05-21T05:48:49.614Z,31.70
2023-05-21T05:51:55.205Z,99.90
2023-05-21T05:54:59.696Z,99.90
2023-05-21T05:58:04.316Z,99.90
2023-05-21T06:01:10.325Z,50.50
2023-05-21T06:04:14.828Z,99.90
2023-05-21T06:07:19.417Z,99.90
2023-05-21T06:10:23.934Z,99.90
2023-05-21T06:13:28.564Z,99.90
2023-05-21T06:16:34.036Z,99.90
2023-05-21T06:19:39.615Z,10.50
2023-05-21T06:22:44.645Z,1.00
2023-05-21T06:25:48.979Z,1.00
2023-05-21T06:28:53.874Z,1.00
2023-05-21T06:31:58.294Z,99.90
2023-05-21T06:35:02.652Z,99.90
2023-05-21T06:38:07.114Z,99.90
2023-05-21T06:41:11.546Z,99.90
2023-05-21T06:44:26.176Z,99.90
2023-05-21T06:47:41.999Z,99.90
2023-05-21T06:50:46.594Z,99.90
2023-05-21T06:53:51.957Z,99.90
2023-05-21T06:56:56.291Z,99.90
2023-05-21T07:00:00.677Z,99.90
2023-05-21T07:03:05.219Z,99.90
2023-05-21T07:06:09.870Z,99.90
2023-05-21T07:09:15.545Z,31.50
2023-05-21T07:12:20.125Z,1.00
2023-05-21T07:15:25.289Z,99.90
2023-05-21T07:18:30.077Z,99.90
2023-05-21T07:21:34.435Z,99.90
2023-05-21T07:24:39.565Z,99.90
2023-05-21T07:27:44.123Z,99.90
2023-05-21T07:30:48.677Z,99.90
2023-05-21T07:33:57.909Z,99.90
2023-05-21T07:37:06.372Z,99.90
2023-05-21T07:40:11.390Z,99.90
2023-05-21T07:43:16.252Z,99.90
2023-05-21T07:46:20.977Z,99.90
2023-05-21T07:49:28.817Z,99.90
2023-05-21T07:52:33.433Z,99.90
2023-05-21T07:55:38.555Z,99.90
2023-05-21T07:58:45.811Z,99.90
2023-05-21T08:01:51.993Z,99.90
2023-05-21T08:04:56.417Z,99.90
2023-05-21T08:08:02.383Z,99.90
2023-05-21T08:11:07.006Z,99.90
2023-05-21T08:14:12.311Z,99.90
2023-05-21T08:17:16.908Z,99.90
2023-05-21T08:20:21.980Z,99.90
2023-05-21T08:23:27.849Z,99.90
2023-05-21T08:26:34.338Z,99.90
2023-05-21T08:29:39.621Z,99.90
2023-05-21T08:32:45.190Z,99.90
2023-05-21T08:35:49.927Z,99.90
2023-05-21T08:39:08.239Z,99.90
2023-05-21T08:42:37.083Z,99.90
2023-05-21T08:45:47.006Z,99.90
2023-05-21T08:48:55.045Z,99.90
2023-05-21T08:52:01.234Z,99.90
2023-05-21T08:55:07.078Z,99.90
2023-05-21T08:58:13.762Z,99.90
2023-05-21T09:01:19.995Z,99.90
2023-05-21T09:04:29.009Z,99.90
2023-05-21T09:07:39.670Z,99.90
2023-05-21T09:10:52.956Z,99.90
2023-05-21T09:14:02.294Z,99.90
2023-05-21T09:17:23.106Z,99.90
2023-05-21T09:20:36.217Z,99.90
2023-05-21T09:23:41.114Z,99.90
2023-05-21T09:26:45.758Z,99.90
2023-05-21T09:29:50.605Z,99.90
2023-05-21T09:32:59.229Z,99.90
2023-05-21T09:36:08.191Z,99.90
2023-05-21T09:39:16.662Z,99.90
2023-05-21T09:42:22.388Z,99.90
2023-05-21T09:45:28.515Z,99.90
2023-05-21T09:48:37.391Z,99.90
2023-05-21T09:51:44.864Z,99.90
2023-05-21T09:54:49.281Z,99.90
2023-05-21T09:57:53.823Z,99.90
2023-05-21T10:00:59.239Z,99.90
2023-05-21T10:04:08.117Z,99.90
2023-05-21T10:07:12.448Z,99.90
2023-05-21T10:10:20.542Z,99.90
2023-05-21T10:13:25.577Z,99.90
2023-05-21T10:16:33.134Z,99.90
2023-05-21T10:19:38.692Z,99.90
2023-05-21T10:22:45.028Z,99.90
2023-05-21T10:25:51.065Z,99.90
2023-05-21T10:28:57.405Z,99.90
2023-05-21T10:32:03.785Z,99.90
2023-05-21T10:35:09.874Z,99.90
2023-05-21T10:38:15.626Z,99.90
2023-05-21T10:41:22.518Z,99.90
2023-05-21T10:44:46.159Z,99.90
2023-05-21T10:48:16.275Z,99.90
2023-05-21T10:51:38.434Z,99.90
2023-05-21T10:54:58.077Z,99.90
2023-05-21T10:58:13.992Z,99.90
2023-05-21T11:01:19.413Z,99.90
2023-05-21T11:04:27.098Z,99.90
2023-05-21T11:08:20.804Z,99.90
2023-05-21T11:11:44.992Z,99.90
2023-05-21T11:14:58.487Z,99.90
2023-05-21T11:18:03.145Z,99.90
2023-05-21T11:21:10.337Z,99.90
2023-05-21T11:24:19.953Z,99.90
2023-05-21T11:27:37.898Z,99.90
2023-05-21T11:30:42.349Z,99.90
2023-05-21T11:33:47.929Z,99.90
2023-05-21T11:37:23.372Z,99.90
2023-05-21T11:40:30.142Z,99.90
2023-05-21T11:43:39.986Z,99.90
2023-05-21T11:46:44.495Z,99.90
2023-05-21T11:49:49.468Z,99.90
2023-05-21T11:52:53.902Z,99.90
2023-05-21T11:55:59.732Z,99.90
2023-05-21T11:59:05.013Z,99.90
2023-05-21T12:02:09.556Z,99.90
2023-05-21T12:05:14.134Z,99.90
2023-05-21T12:08:27.552Z,99.90
2023-05-21T12:11:32.307Z,99.90
2023-05-21T12:14:37.242Z,99.90
2023-05-21T12:17:41.836Z,99.90
2023-05-21T12:20:45.952Z,99.90
2023-05-21T12:23:50.582Z,99.90
2023-05-21T12:26:55.325Z,99.90
2023-05-21T12:29:59.834Z,99.90
2023-05-21T12:33:04.546Z,99.90
2023-05-21T12:36:08.758Z,99.90
2023-05-21T12:39:13.407Z,99.90
2023-05-21T12:42:29.898Z,99.90
2023-05-21T12:45:34.452Z,99.90
2023-05-21T12:48:39.562Z,99.90
2023-05-21T12:51:45.621Z,99.90
2023-05-21T12:54:52.554Z,99.90
2023-05-21T12:58:10.674Z,99.90
2023-05-21T13:01:15.376Z,99.90
2023-05-21T13:04:20.643Z,99.90
2023-05-21T13:07:26.485Z,99.90
2023-05-21T13:10:30.954Z,99.90
2023-05-21T13:13:35.604Z,99.90
2023-05-21T13:16:40.159Z,99.90
2023-05-21T13:20:12.246Z,99.90
2023-05-21T13:23:17.145Z,99.90
2023-05-21T13:26:21.945Z,99.90
2023-05-21T13:29:26.369Z,99.90
2023-05-21T13:32:30.640Z,99.90
2023-05-21T13:35:35.372Z,99.90
2023-05-21T13:38:39.847Z,99.90
2023-05-21T13:41:44.165Z,99.90
2023-05-21T13:44:49.551Z,99.90
2023-05-21T13:47:53.998Z,99.90
2023-05-21T13:50:58.152Z,99.90
2023-05-21T13:54:02.529Z,99.90
2023-05-21T13:57:07.092Z,99.90
2023-05-21T14:00:14.282Z,99.90
2023-05-21T14:03:19.160Z,99.90
2023-05-21T14:06:23.513Z,99.90
2023-05-21T14:09:27.767Z,99.90
2023-05-21T14:12:33.355Z,99.90
2023-05-21T14:15:38.533Z,99.90
2023-05-21T14:18:43.160Z,99.90
2023-05-21T14:21:47.647Z,99.90
2023-05-21T14:24:52.796Z,99.90
2023-05-21T14:27:57.210Z,99.90
2023-05-21T14:31:01.743Z,99.90
2023-05-21T14:34:08.918Z,99.90
2023-05-21T14:37:13.471Z,99.90
2023-05-21T14:40:17.954Z,99.90
2023-05-21T14:43:22.590Z,99.90
2023-05-21T14:46:27.074Z,99.90
2023-05-21T14:49:31.361Z,99.90
2023-05-21T14:52:35.944Z,99.90
2023-05-21T14:55:40.536Z,99.90
2023-05-21T14:58:45.640Z,99.90
2023-05-21T15:01:50.672Z,99.90
2023-05-21T15:04:56.361Z,99.90
2023-05-21T15:08:00.647Z,99.90
2023-05-21T15:11:07.539Z,99.90
2023-05-21T15:14:12.566Z,99.90
2023-05-21T15:17:16.947Z,99.90
2023-05-21T15:20:21.933Z,99.90
2023-05-21T15:23:26.091Z,99.90
2023-05-21T15:26:30.694Z,99.90
2023-05-21T15:29:35.023Z,99.90
2023-05-21T15:32:39.572Z,99.90
2023-05-21T15:35:44.474Z,99.90
2023-05-21T15:38:49.217Z,99.90
2023-05-21T15:41:54.593Z,99.90
2023-05-21T15:44:59.252Z,99.90
2023-05-21T15:48:03.488Z,99.90
2023-05-21T15:51:07.887Z,99.90
2023-05-21T15:54:13.131Z,99.90
2023-05-21T15:57:17.812Z,99.90
2023-05-21T16:00:22.101Z,99.90
2023-05-21T16:03:26.725Z,99.90
2023-05-21T16:06:31.573Z,99.90
2023-05-21T16:09:37.647Z,99.90
2023-05-21T16:12:42.415Z,99.90
2023-05-21T16:15:46.862Z,99.90
2023-05-21T16:18:51.172Z,99.90
2023-05-21T16:21:55.517Z,1.00
2023-05-21T16:24:59.734Z,1.00
2023-05-21T16:28:04.497Z,1.00
2023-05-21T16:31:09.657Z,99.90
2023-05-21T16:34:14.280Z,1.00
2023-05-21T16:37:18.516Z,1.00
2023-05-21T16:40:23.190Z,1.00
2023-05-21T16:43:27.707Z,1.00
2023-05-21T16:46:32.259Z,1.00
2023-05-21T16:49:36.399Z,1.00
2023-05-21T16:52:40.815Z,1.00
2023-05-21T16:55:45.252Z,20.40
2023-05-21T16:58:50.198Z,42.70
2023-05-21T17:01:54.755Z,60.10
2023-05-21T17:04:59.189Z,99.90
2023-05-21T17:08:03.807Z,99.90
2023-05-21T17:11:08.490Z,99.90
2023-05-21T17:14:17.560Z,99.90
2023-05-21T17:17:27.972Z,99.90
2023-05-21T17:20:32.214Z,99.90
2023-05-21T17:23:36.544Z,99.90
2023-05-21T17:26:40.769Z,99.90
2023-05-21T17:29:45.393Z,99.90
2023-05-21T17:32:49.988Z,99.90
2023-05-21T17:35:56.358Z,99.90
2023-05-21T17:39:00.687Z,99.90
2023-05-21T17:42:04.919Z,99.90
2023-05-21T17:45:09.794Z,99.90
2023-05-21T17:48:14.229Z,1.00
2023-05-21T17:51:18.417Z,1.00
2023-05-21T17:54:22.535Z,1.00
2023-05-21T17:57:27.229Z,1.00
2023-05-21T18:00:32.285Z,1.00
2023-05-21T18:03:36.726Z,1.00
2023-05-21T18:06:41.026Z,15.10
2023-05-21T18:09:45.671Z,45.30
2023-05-21T18:12:50.161Z,80.50
2023-05-21T18:15:56.300Z,90.50
2023-05-21T18:19:06.546Z,92.80
2023-05-21T18:22:11.492Z,99.90
2023-05-21T18:25:16.430Z,99.90
2023-05-21T18:28:20.766Z,99.90
2023-05-21T18:31:25.364Z,99.90
2023-05-21T18:34:29.807Z,99.90
2023-05-21T18:37:34.089Z,99.90
2023-05-21T18:40:39.303Z,99.90
2023-05-21T18:43:43.971Z,99.90
2023-05-21T18:46:48.287Z,99.90
2023-05-21T18:49:52.945Z,99.90
2023-05-21T18:52:57.407Z,99.90
2023-05-21T18:56:02.053Z,99.90
2023-05-21T18:59:06.414Z,99.90
2023-05-21T19:02:11.300Z,99.90
2023-05-21T19:05:16.347Z,99.90
2023-05-21T19:08:21.076Z,99.90
2023-05-21T19:11:31.053Z,99.90
2023-05-21T19:14:35.318Z,99.90
2023-05-21T19:17:40.076Z,99.90
2023-05-21T19:20:44.312Z,99.90
2023-05-21T19:23:53.369Z,99.90
2023-05-21T19:27:00.032Z,99.90
2023-05-21T19:30:05.107Z,99.90
2023-05-21T19:33:09.387Z,99.90
2023-05-21T19:36:13.770Z,99.90
2023-05-21T19:39:18.470Z,99.90
2023-05-21T19:42:22.970Z,99.90
2023-05-21T19:45:27.582Z,99.90
2023-05-21T19:48:32.165Z,99.90
2023-05-21T19:51:36.620Z,99.90
2023-05-21T19:54:41.040Z,99.90
2023-05-21T19:57:45.759Z,99.90
2023-05-21T20:00:51.209Z,99.90
2023-05-21T20:03:56.246Z,99.90
2023-05-21T20:07:00.609Z,95.10
2023-05-21T20:10:05.405Z,71.00
2023-05-21T20:13:09.750Z,47.90
2023-05-21T20:16:14.341Z,25.40
2023-05-21T20:19:20.460Z,2.40
2023-05-21T20:22:24.940Z,1.00
2023-05-21T20:25:32.315Z,1.00
2023-05-21T20:28:37.405Z,1.00
2023-05-21T20:31:42.060Z,1.00
2023-05-21T20:35:01.654Z,1.00
2023-05-21T20:38:07.688Z,1.00
2023-05-21T20:41:13.096Z,1.00
2023-05-21T20:44:17.950Z,99.90
2023-05-21T20:47:23.412Z,99.90
2023-05-21T20:50:28.680Z,99.90
2023-05-21T20:53:33.853Z,99.90
2023-05-21T20:56:42.684Z,99.90
2023-05-21T20:59:47.595Z,99.90
2023-05-21T21:02:52.029Z,99.90
2023-05-21T21:05:58.014Z,99.90
2023-05-21T21:09:04.137Z,99.90
2023-05-21T21:12:21.569Z,99.90
2023-05-21T21:15:29.984Z,99.90
2023-05-21T21:18:34.343Z,99.90
2023-05-21T21:21:38.859Z,99.90
2023-05-21T21:24:43.321Z,99.90
2023-05-21T21:27:48.011Z,99.90
2023-05-21T21:30:52.536Z,99.90
2023-05-21T21:33:57.794Z,99.90
2023-05-21T21:37:02.022Z,99.90
2023-05-21T21:40:07.324Z,99.90
2023-05-21T21:43:12.065Z,1.00
2023-05-21T21:46:16.692Z,1.00
2023-05-21T21:49:21.047Z,1.00
2023-05-21T21:52:28.412Z,1.00
2023-05-21T21:55:33.299Z,1.00
2023-05-21T21:58:37.749Z,1.00
2023-05-21T22:01:42.993Z,7.60
2023-05-21T22:04:47.997Z,23.60
2023-05-21T22:07:52.670Z,47.00
2023-05-21T22:10:57.313Z,77.60
2023-05-21T22:14:02.735Z,91.40
2023-05-21T22:17:08.545Z,98.90
2023-05-21T22:20:12.914Z,99.90
2023-05-21T22:23:17.296Z,99.90
2023-05-21T22:26:23.021Z,99.90
2023-05-21T22:29:27.444Z,99.90
2023-05-21T22:32:31.760Z,99.90
2023-05-21T22:35:36.218Z,99.90
2023-05-21T22:38:40.529Z,99.90
2023-05-21T22:41:45.607Z,99.90
2023-05-21T22:44:50.029Z,99.90
2023-05-21T22:47:56.673Z,99.90
2023-05-21T22:51:01.851Z,99.90
2023-05-21T22:54:06.334Z,99.90
2023-05-21T22:57:10.979Z,99.90
2023-05-21T23:00:18.961Z,99.90
2023-05-21T23:03:23.706Z,99.90
2023-05-21T23:06:28.424Z,1.00
2023-05-21T23:09:32.819Z,1.00
2023-05-21T23:12:37.176Z,1.00
2023-05-21T23:15:43.733Z,1.00
2023-05-21T23:18:49.946Z,1.00
2023-05-21T23:21:54.548Z,1.00
2023-05-21T23:24:58.971Z,1.00
2023-05-21T23:28:04.322Z,1.00
2023-05-21T23:31:08.953Z,1.00
2023-05-21T23:34:13.253Z,1.00
2023-05-21T23:37:17.468Z,1.00
2023-05-21T23:40:22.128Z,11.20
2023-05-21T23:43:26.689Z,44.00
2023-05-21T23:46:31.079Z,72.00
2023-05-21T23:49:35.557Z,98.20
2023-05-21T23:52:41.457Z,99.90
2023-05-21T23:55:46.386Z,99.90
2023-05-21T23:58:51.649Z,99.90
